createdAt,value
2019-04-27T00:02:28.049Z,88.55
2019-04-27T00:05:10.523Z,87.50
2019-04-27T00:07:40.694Z,86.54
2019-04-27T00:10:11.278Z,88.49
2019-04-27T00:12:39.918Z,88.24
2019-04-27T00:15:10.126Z,88.94
2019-04-27T00:17:49.440Z,87.18
2019-04-27T00:20:23.994Z,87.49
2019-04-27T00:22:54.149Z,88.55
2019-04-27T00:25:23.080Z,87.40
2019-04-27T00:27:53.419Z,88.30
2019-04-27T00:30:23.469Z,86.96
2019-04-27T00:32:53.603Z,87.38
2019-04-27T00:35:23.908Z,86.88
2019-04-27T00:37:56.816Z,87.37
2019-04-27T00:40:33.594Z,88.23
2019-04-27T00:43:03.013Z,87.19
2019-04-27T00:45:33.428Z,87.41
2019-04-27T00:48:03.532Z,87.64
2019-04-27T00:50:33.803Z,87.69
2019-04-27T00:53:03.431Z,87.39
2019-04-27T00:55:33.592Z,87.35
2019-04-27T00:58:04.246Z,87.07
2019-04-27T01:00:36.747Z,87.45
2019-04-27T01:03:06.973Z,86.74
2019-04-27T01:05:35.459Z,87.82
2019-04-27T01:08:03.990Z,87.42
2019-04-27T01:10:33.456Z,87.29
2019-04-27T01:13:03.323Z,87.74
2019-04-27T01:15:34.003Z,87.80
2019-04-27T01:18:12.354Z,87.62
2019-04-27T01:20:33.212Z,86.13
2019-04-27T01:23:01.713Z,85.78
2019-04-27T01:25:31.818Z,87.85
2019-04-27T01:28:09.720Z,88.50
2019-04-27T01:30:49.043Z,86.41
2019-04-27T01:33:17.644Z,86.20
2019-04-27T01:35:46.124Z,88.37
2019-04-27T01:38:14.707Z,86.08
2019-04-27T01:40:43.202Z,88.47
2019-04-27T01:43:11.708Z,87.42
2019-04-27T01:45:40.197Z,85.58
2019-04-27T01:48:22.517Z,85.96
2019-04-27T01:50:39.253Z,86.88
2019-04-27T01:53:09.103Z,86.79
2019-04-27T01:55:38.602Z,87.61
2019-04-27T01:58:10.642Z,85.94
2019-04-27T02:00:49.417Z,86.43
2019-04-27T02:03:22.125Z,87.64
2019-04-27T02:05:52.244Z,87.70
2019-04-27T02:08:20.767Z,87.52
2019-04-27T02:10:49.643Z,85.31
2019-04-27T02:13:19.124Z,86.20
2019-04-27T02:15:48.687Z,87.08
2019-04-27T02:18:17.309Z,85.85
2019-04-27T02:20:45.851Z,84.99
2019-04-27T02:23:14.346Z,86.24
2019-04-27T02:25:42.828Z,86.40
2019-04-27T02:28:12.956Z,87.11
2019-04-27T02:31:01.909Z,84.73
2019-04-27T02:33:34.180Z,85.30
2019-04-27T02:36:02.649Z,86.61
2019-04-27T02:38:31.158Z,85.68
2019-04-27T02:41:01.175Z,84.89
2019-04-27T02:43:33.875Z,85.77
2019-04-27T02:46:02.358Z,85.69
2019-04-27T02:48:31.045Z,85.84
2019-04-27T02:51:07.130Z,85.29
2019-04-27T02:56:27.034Z,86.04
2019-04-27T02:58:55.597Z,84.73
2019-04-27T03:01:25.847Z,85.73
2019-04-27T03:03:54.370Z,85.68
2019-04-27T03:06:23.337Z,83.98
2019-04-27T03:08:54.043Z,84.44
2019-04-27T03:11:23.504Z,85.29
2019-04-27T03:13:53.795Z,83.47
2019-04-27T03:16:40.055Z,84.06
2019-04-27T03:19:26.179Z,85.22
2019-04-27T03:21:56.310Z,84.53
2019-04-27T03:24:42.567Z,84.93
2019-04-27T03:27:12.757Z,83.80
2019-04-27T03:29:41.490Z,84.48
2019-04-27T03:32:12.500Z,83.73
2019-04-27T03:34:41.777Z,84.51
2019-04-27T03:37:10.746Z,83.46
2019-04-27T03:39:39.826Z,85.22
2019-04-27T03:42:10.385Z,85.77
2019-04-27T03:44:39.858Z,84.74
2019-04-27T03:47:12.317Z,85.88
2019-04-27T03:49:41.516Z,85.51
2019-04-27T03:52:26.900Z,85.53
2019-04-27T03:55:03.151Z,85.60
2019-04-27T03:57:33.351Z,86.25
2019-04-27T04:00:03.479Z,85.90
2019-04-27T04:02:31.980Z,85.41
2019-04-27T04:05:00.546Z,87.14
2019-04-27T04:07:30.098Z,86.04
2019-04-27T04:10:00.204Z,86.86
2019-04-27T04:12:30.751Z,85.68
2019-04-27T04:14:59.989Z,85.08
2019-04-27T04:17:30.813Z,86.31
2019-04-27T04:20:01.616Z,85.51
2019-04-27T04:22:30.560Z,86.99
2019-04-27T04:24:59.859Z,86.79
2019-04-27T04:27:29.890Z,86.10
2019-04-27T04:29:59.390Z,86.17
2019-04-27T04:32:29.724Z,86.99
2019-04-27T04:35:21.161Z,86.56
2019-04-27T04:37:52.755Z,85.03
2019-04-27T04:40:23.127Z,86.44
2019-04-27T04:42:53.577Z,84.90
2019-04-27T04:45:39.620Z,85.91
2019-04-27T04:48:10.100Z,84.57
2019-04-27T04:50:39.608Z,85.43
2019-04-27T04:53:12.499Z,84.38
2019-04-27T04:55:39.229Z,85.45
2019-04-27T04:58:09.391Z,85.60
2019-04-27T05:00:40.114Z,84.96
2019-04-27T05:03:09.454Z,84.88
2019-04-27T05:05:41.048Z,84.99
2019-04-27T05:08:09.117Z,85.26
2019-04-27T05:10:39.524Z,86.28
2019-04-27T05:13:09.370Z,86.19
2019-04-27T05:15:39.497Z,86.84
2019-04-27T05:18:09.135Z,86.26
2019-04-27T05:20:42.395Z,85.56
2019-04-27T05:23:10.887Z,85.68
2019-04-27T05:25:39.365Z,86.09
2019-04-27T05:28:09.694Z,85.95
2019-04-27T05:30:39.107Z,87.56
2019-04-27T05:33:08.946Z,86.89
2019-04-27T05:35:40.623Z,85.69
2019-04-27T05:38:12.784Z,87.23
2019-04-27T05:40:39.899Z,85.88
2019-04-27T05:43:09.193Z,87.91
2019-04-27T05:46:12.321Z,85.24
2019-04-27T05:48:39.900Z,84.97
2019-04-27T05:51:09.211Z,85.98
2019-04-27T05:53:39.426Z,85.10
2019-04-27T05:56:09.389Z,84.50
2019-04-27T05:58:39.248Z,84.01
2019-04-27T06:01:10.969Z,85.29
2019-04-27T06:03:39.721Z,85.45
2019-04-27T06:06:09.707Z,84.98
2019-04-27T06:08:39.308Z,85.99
2019-04-27T06:11:09.452Z,84.44
2019-04-27T06:13:39.241Z,83.77
2019-04-27T06:16:09.508Z,83.79
2019-04-27T06:18:39.166Z,84.42
2019-04-27T06:21:09.605Z,82.97
2019-04-27T06:23:39.088Z,83.47
2019-04-27T06:26:09.153Z,83.38
2019-04-27T06:28:39.820Z,84.55
2019-04-27T06:31:08.876Z,84.00
2019-04-27T06:33:39.160Z,83.69
2019-04-27T06:36:09.863Z,82.82
2019-04-27T06:38:39.332Z,83.16
2019-04-27T06:41:10.066Z,82.99
2019-04-27T06:43:38.202Z,81.87
2019-04-27T06:46:06.699Z,82.52
2019-04-27T06:48:35.186Z,81.91
2019-04-27T06:51:05.638Z,81.42
2019-04-27T06:53:33.969Z,81.05
2019-04-27T06:56:02.480Z,80.09
2019-04-27T06:58:30.953Z,80.20
2019-04-27T07:00:59.654Z,79.92
2019-04-27T07:03:28.928Z,79.55
2019-04-27T07:05:58.835Z,79.57
2019-04-27T07:08:30.570Z,78.87
2019-04-27T07:10:58.855Z,78.43
2019-04-27T07:13:29.142Z,77.73
2019-04-27T07:15:59.561Z,77.83
2019-04-27T07:18:28.685Z,77.37
2019-04-27T07:20:58.639Z,77.10
2019-04-27T07:23:29.278Z,76.66
2019-04-27T07:25:57.569Z,77.07
2019-04-27T07:28:26.083Z,76.65
2019-04-27T07:30:54.564Z,75.71
2019-04-27T07:33:23.063Z,75.60
2019-04-27T07:35:51.608Z,75.81
2019-04-27T07:38:20.122Z,75.64
2019-04-27T07:40:48.962Z,75.40
2019-04-27T07:43:25.066Z,75.00
2019-04-27T07:45:53.561Z,75.18
2019-04-27T07:48:22.041Z,74.87
2019-04-27T07:50:50.547Z,74.46
2019-04-27T07:53:19.424Z,73.98
2019-04-27T07:55:49.510Z,73.99
2019-04-27T07:58:20.608Z,73.69
2019-04-27T08:00:49.206Z,74.33
2019-04-27T08:03:19.557Z,74.23
2019-04-27T08:05:49.128Z,74.29
2019-04-27T08:08:18.982Z,74.48
2019-04-27T08:10:50.053Z,74.17
2019-04-27T08:13:19.462Z,74.43
2019-04-27T08:15:49.640Z,73.95
2019-04-27T08:18:18.940Z,73.89
2019-04-27T08:20:49.110Z,73.53
2019-04-27T08:23:19.438Z,73.62
2019-04-27T08:25:48.989Z,74.11
2019-04-27T08:28:22.019Z,73.67
2019-04-27T08:30:58.569Z,72.02
2019-04-27T08:33:28.984Z,73.25
2019-04-27T08:35:59.075Z,72.19
2019-04-27T08:38:28.908Z,71.68
2019-04-27T08:40:59.239Z,70.85
2019-04-27T08:43:28.976Z,67.66
2019-04-27T08:45:58.740Z,68.30
2019-04-27T08:48:34.732Z,69.94
2019-04-27T08:50:59.365Z,67.75
2019-04-27T08:53:29.729Z,69.24
2019-04-27T08:55:59.185Z,68.25
2019-04-27T08:58:28.597Z,68.24
2019-04-27T09:00:58.912Z,66.70
2019-04-27T09:03:29.380Z,67.37
2019-04-27T09:05:58.999Z,66.46
2019-04-27T09:08:32.520Z,66.54
2019-04-27T09:11:18.671Z,66.30
2019-04-27T09:13:49.756Z,66.12
2019-04-27T09:16:25.430Z,65.68
2019-04-27T09:18:55.571Z,65.20
2019-04-27T09:21:24.053Z,64.86
2019-04-27T09:23:52.545Z,65.12
2019-04-27T09:26:21.020Z,65.06
2019-04-27T09:28:49.522Z,63.83
2019-04-27T09:31:19.597Z,63.31
2019-04-27T09:33:48.240Z,63.40
2019-04-27T09:36:16.745Z,62.35
2019-04-27T09:38:46.520Z,63.07
2019-04-27T09:41:16.964Z,62.83
2019-04-27T09:43:46.596Z,63.23
2019-04-27T09:46:15.812Z,62.93
2019-04-27T09:48:44.415Z,60.77
2019-04-27T09:51:12.927Z,61.41
2019-04-27T09:53:41.410Z,59.97
2019-04-27T09:56:09.929Z,59.57
2019-04-27T09:58:38.412Z,60.46
2019-04-27T10:01:06.952Z,59.94
2019-04-27T10:03:36.083Z,59.96
2019-04-27T10:06:05.881Z,60.22
2019-04-27T10:08:36.542Z,60.18
2019-04-27T10:11:05.985Z,59.61
2019-04-27T10:13:36.236Z,58.68
2019-04-27T10:16:05.448Z,58.17
2019-04-27T10:18:33.935Z,58.16
2019-04-27T10:21:02.462Z,55.91
2019-04-27T10:23:30.914Z,57.24
2019-04-27T10:25:59.404Z,58.64
2019-04-27T10:28:27.906Z,58.64
2019-04-27T10:30:56.413Z,57.21
2019-04-27T10:33:26.073Z,57.20
2019-04-27T10:35:56.278Z,56.56
2019-04-27T10:38:25.900Z,56.22
2019-04-27T10:40:54.659Z,54.77
2019-04-27T10:43:23.132Z,54.25
2019-04-27T10:45:51.707Z,51.95
2019-04-27T10:48:20.199Z,54.97
2019-04-27T10:50:48.688Z,53.87
2019-04-27T10:53:17.197Z,52.59
2019-04-27T10:55:46.413Z,53.56
2019-04-27T10:58:15.014Z,52.27
2019-04-27T11:00:45.976Z,52.44
2019-04-27T11:03:16.663Z,52.35
2019-04-27T11:06:07.195Z,51.84
2019-04-27T11:08:35.701Z,52.21
2019-04-27T11:11:04.187Z,50.87
2019-04-27T11:13:32.684Z,51.54
2019-04-27T11:16:01.166Z,51.72
2019-04-27T11:18:29.733Z,51.38
2019-04-27T11:20:58.210Z,51.07
2019-04-27T11:23:26.734Z,51.22
2019-04-27T11:25:55.216Z,50.22
2019-04-27T11:28:23.726Z,50.31
2019-04-27T11:30:52.216Z,49.38
2019-04-27T11:33:20.728Z,49.08
2019-04-27T11:35:50.846Z,50.04
2019-04-27T11:38:19.368Z,49.82
2019-04-27T11:40:47.862Z,49.20
2019-04-27T11:43:16.362Z,49.29
2019-04-27T11:45:45.724Z,49.74
2019-04-27T11:48:16.031Z,48.52
2019-04-27T11:50:45.878Z,48.67
2019-04-27T11:53:22.726Z,47.06
2019-04-27T11:55:45.227Z,47.64
2019-04-27T11:58:13.733Z,47.51
2019-04-27T12:00:42.215Z,48.25
2019-04-27T12:03:10.742Z,47.87
2019-04-27T12:05:39.213Z,47.61
2019-04-27T12:08:07.779Z,46.83
2019-04-27T12:10:36.451Z,46.52
2019-04-27T12:13:05.436Z,46.54
2019-04-27T12:15:36.231Z,46.58
2019-04-27T12:18:09.023Z,46.87
2019-04-27T12:20:35.917Z,47.15
2019-04-27T12:23:06.599Z,47.20
2019-04-27T12:25:37.062Z,46.89
2019-04-27T12:28:10.751Z,47.11
2019-04-27T12:30:41.068Z,47.01
2019-04-27T12:33:09.530Z,46.46
2019-04-27T12:35:38.003Z,46.75
2019-04-27T12:38:07.343Z,46.68
2019-04-27T12:40:36.648Z,46.99
2019-04-27T12:43:05.413Z,46.95
2019-04-27T12:45:33.897Z,46.32
2019-04-27T12:48:02.715Z,46.90
2019-04-27T12:50:31.277Z,47.38
2019-04-27T12:53:01.388Z,46.93
2019-04-27T12:55:31.592Z,47.83
2019-04-27T12:58:06.319Z,48.42
2019-04-27T13:00:36.770Z,48.58
2019-04-27T13:03:06.122Z,48.56
2019-04-27T13:05:35.890Z,48.87
2019-04-27T13:08:04.625Z,49.36
2019-04-27T13:10:33.766Z,49.87
2019-04-27T13:13:02.298Z,49.32
2019-04-27T13:15:31.806Z,49.47
2019-04-27T13:18:00.336Z,49.20
2019-04-27T13:20:28.885Z,48.58
2019-04-27T13:22:57.354Z,49.37
2019-04-27T13:25:25.854Z,48.58
2019-04-27T13:27:54.312Z,49.03
2019-04-27T13:30:23.072Z,48.75
2019-04-27T13:32:51.554Z,49.16
2019-04-27T13:35:20.040Z,49.52
2019-04-27T13:37:48.543Z,49.71
2019-04-27T13:40:18.279Z,50.24
2019-04-27T13:42:53.594Z,49.90
2019-04-27T13:45:26.643Z,48.62
2019-04-27T13:48:18.114Z,48.78
2019-04-27T13:50:51.129Z,48.57
2019-04-27T13:53:19.597Z,47.50
2019-04-27T13:55:48.521Z,47.40
2019-04-27T13:58:17.130Z,47.47
2019-04-27T14:00:45.589Z,47.67
2019-04-27T14:03:14.347Z,46.44
2019-04-27T14:05:44.352Z,46.68
2019-04-27T14:08:12.834Z,46.73
2019-04-27T14:10:41.358Z,47.07
2019-04-27T14:13:11.082Z,47.56
2019-04-27T14:15:39.722Z,47.78
2019-04-27T14:18:08.513Z,46.71
2019-04-27T14:20:38.844Z,47.26
2019-04-27T14:23:18.791Z,46.38
2019-04-27T14:25:47.433Z,46.75
2019-04-27T14:28:15.933Z,47.21
2019-04-27T14:30:44.397Z,46.65
2019-04-27T14:33:12.956Z,46.77
2019-04-27T14:35:41.441Z,46.53
2019-04-27T14:38:09.943Z,45.75
2019-04-27T14:40:39.238Z,46.31
2019-04-27T14:43:08.510Z,46.57
2019-04-27T14:45:38.269Z,46.53
2019-04-27T14:48:08.268Z,46.45
2019-04-27T14:50:38.632Z,46.62
2019-04-27T14:53:08.853Z,45.57
2019-04-27T14:55:38.814Z,45.54
2019-04-27T14:58:08.712Z,46.19
2019-04-27T15:00:38.417Z,47.01
2019-04-27T15:03:07.149Z,46.47
2019-04-27T15:05:35.702Z,46.23
2019-04-27T15:08:06.476Z,46.31
2019-04-27T15:10:36.115Z,45.56
2019-04-27T15:13:06.496Z,45.91
2019-04-27T15:15:35.671Z,46.38
2019-04-27T15:18:05.564Z,46.48
2019-04-27T15:20:38.999Z,46.41
2019-04-27T15:23:06.079Z,46.31
2019-04-27T15:25:42.330Z,46.48
2019-04-27T15:28:07.470Z,46.55
2019-04-27T15:30:41.654Z,46.47
2019-04-27T15:33:26.867Z,46.64
2019-04-27T15:36:14.507Z,46.75
2019-04-27T15:38:49.256Z,46.81
2019-04-27T15:41:16.927Z,46.85
2019-04-27T15:43:48.551Z,47.32
2019-04-27T15:46:18.431Z,46.92
2019-04-27T15:48:48.748Z,47.22
2019-04-27T15:51:20.997Z,47.31
2019-04-27T15:53:52.738Z,47.46
2019-04-27T15:56:18.189Z,47.42
2019-04-27T15:58:48.333Z,47.80
2019-04-27T16:01:18.057Z,48.25
2019-04-27T16:03:48.179Z,48.06
2019-04-27T16:06:18.718Z,48.15
2019-04-27T16:08:49.163Z,48.57
2019-04-27T16:11:19.801Z,48.59
2019-04-27T16:13:48.778Z,48.34
2019-04-27T16:16:18.567Z,48.84
2019-04-27T16:18:49.015Z,48.78
2019-04-27T16:21:18.154Z,48.81
2019-04-27T16:23:48.063Z,49.43
2019-04-27T16:26:18.154Z,49.49
2019-04-27T16:28:52.876Z,49.56
2019-04-27T16:31:18.662Z,49.52
2019-04-27T16:33:49.379Z,49.11
2019-04-27T16:36:19.609Z,49.80
2019-04-27T16:38:49.538Z,49.82
2019-04-27T16:41:18.539Z,49.76
2019-04-27T16:43:48.845Z,50.52
2019-04-27T16:46:21.064Z,50.96
2019-04-27T16:48:47.587Z,51.89
2019-04-27T16:51:16.088Z,51.69
2019-04-27T16:53:44.556Z,52.22
2019-04-27T16:56:15.275Z,52.52
2019-04-27T16:58:43.436Z,53.51
2019-04-27T17:01:28.643Z,53.08
2019-04-27T17:03:56.460Z,52.59
2019-04-27T17:06:25.594Z,53.11
2019-04-27T17:08:57.262Z,54.24
2019-04-27T17:11:25.476Z,53.86
2019-04-27T17:13:59.004Z,53.83
2019-04-27T17:16:35.535Z,54.40
2019-04-27T17:19:20.939Z,54.70
2019-04-27T17:21:49.437Z,54.13
2019-04-27T17:24:41.607Z,53.53
2019-04-27T17:27:05.327Z,54.55
2019-04-27T17:29:35.627Z,54.92
2019-04-27T17:32:04.507Z,55.05
2019-04-27T17:34:33.004Z,55.40
2019-04-27T17:37:01.474Z,55.89
2019-04-27T17:39:29.961Z,54.98
2019-04-27T17:41:58.784Z,55.42
2019-04-27T17:44:28.826Z,56.15
2019-04-27T17:46:57.500Z,55.97
2019-04-27T17:49:27.963Z,55.79
2019-04-27T17:51:58.372Z,56.76
2019-04-27T17:54:26.466Z,56.54
2019-04-27T17:56:55.028Z,56.79
2019-04-27T17:59:23.511Z,56.14
2019-04-27T18:01:53.923Z,56.35
2019-04-27T18:04:22.214Z,58.10
2019-04-27T18:06:50.694Z,58.20
2019-04-27T18:09:19.422Z,56.60
2019-04-27T18:11:49.991Z,57.78
2019-04-27T18:14:19.279Z,57.50
2019-04-27T18:16:48.304Z,57.21
2019-04-27T18:19:24.554Z,57.33
2019-04-27T18:22:00.978Z,57.70
2019-04-27T18:24:34.658Z,58.69
2019-04-27T18:27:13.711Z,58.56
2019-04-27T18:29:42.564Z,58.04
2019-04-27T18:32:11.102Z,58.40
2019-04-27T18:34:39.596Z,59.43
2019-04-27T18:37:08.166Z,59.10
2019-04-27T18:39:38.495Z,59.46
2019-04-27T18:42:08.728Z,60.20
2019-04-27T18:44:38.187Z,59.10
2019-04-27T18:47:08.440Z,59.07
2019-04-27T18:49:38.777Z,59.55
2019-04-27T18:52:09.000Z,59.01
2019-04-27T18:54:41.866Z,59.89
2019-04-27T18:57:10.910Z,59.05
2019-04-27T18:59:38.173Z,58.00
2019-04-27T19:02:08.460Z,57.37
2019-04-27T19:04:37.192Z,57.29
2019-04-27T19:07:05.664Z,57.48
2019-04-27T19:09:34.242Z,57.04
2019-04-27T19:12:02.735Z,57.58
2019-04-27T19:14:31.213Z,57.42
2019-04-27T19:16:59.675Z,57.25
2019-04-27T19:19:29.452Z,57.83
2019-04-27T19:21:58.898Z,57.58
2019-04-27T19:24:28.231Z,57.96
2019-04-27T19:26:58.801Z,58.01
2019-04-27T19:29:29.302Z,58.42
2019-04-27T19:31:59.512Z,58.91
2019-04-27T19:34:28.633Z,59.40
2019-04-27T19:36:59.051Z,58.91
2019-04-27T19:39:28.561Z,59.24
2019-04-27T19:42:01.339Z,59.10
2019-04-27T19:44:29.142Z,60.20
2019-04-27T19:46:59.946Z,59.32
2019-04-27T19:49:31.233Z,59.31
2019-04-27T19:51:58.855Z,60.52
2019-04-27T19:54:29.943Z,59.25
2019-04-27T19:56:59.555Z,60.79
2019-04-27T19:59:29.916Z,59.74
2019-04-27T20:02:00.163Z,60.22
2019-04-27T20:04:32.743Z,59.90
2019-04-27T20:07:01.206Z,61.18
2019-04-27T20:09:31.314Z,60.17
2019-04-27T20:12:00.791Z,59.86
2019-04-27T20:14:31.403Z,61.18
2019-04-27T20:16:59.893Z,60.31
2019-04-27T20:19:28.359Z,62.37
2019-04-27T20:21:56.848Z,61.92
2019-04-27T20:24:25.322Z,61.09
2019-04-27T20:26:53.800Z,61.21
2019-04-27T20:29:22.264Z,62.22
2019-04-27T20:31:51.272Z,61.93
2019-04-27T20:34:21.168Z,61.29
2019-04-27T20:36:51.067Z,61.33
2019-04-27T20:39:20.446Z,62.03
2019-04-27T20:41:51.144Z,62.64
2019-04-27T20:44:21.032Z,61.74
2019-04-27T20:46:51.382Z,61.77
2019-04-27T20:49:21.079Z,62.74
2019-04-27T20:51:53.232Z,63.98
2019-04-27T20:54:22.876Z,64.86
2019-04-27T20:56:53.636Z,63.16
2019-04-27T20:59:22.066Z,63.42
2019-04-27T21:01:50.761Z,63.17
2019-04-27T21:04:21.051Z,63.42
2019-04-27T21:06:53.677Z,64.54
2019-04-27T21:09:22.140Z,64.58
2019-04-27T21:11:50.705Z,64.57
2019-04-27T21:14:19.199Z,64.40
2019-04-27T21:16:48.065Z,63.13
2019-04-27T21:19:16.535Z,63.40
2019-04-27T21:21:45.042Z,65.68
2019-04-27T21:24:13.508Z,65.93
2019-04-27T21:26:42.074Z,65.50
2019-04-27T21:29:11.677Z,65.88
2019-04-27T21:31:41.793Z,67.53
2019-04-27T21:34:10.519Z,65.51
2019-04-27T21:36:42.266Z,65.44
2019-04-27T21:39:09.452Z,65.46
2019-04-27T21:41:37.961Z,66.51
2019-04-27T21:44:06.503Z,66.04
2019-04-27T21:46:35.026Z,65.40
2019-04-27T21:49:03.455Z,66.62
2019-04-27T21:51:33.577Z,66.42
2019-04-27T21:54:12.990Z,65.46
2019-04-27T21:56:41.728Z,66.07
2019-04-27T21:59:11.106Z,66.06
2019-04-27T22:01:41.576Z,66.71
2019-04-27T22:04:11.431Z,66.47
2019-04-27T22:06:40.917Z,68.01
2019-04-27T22:09:12.924Z,66.99
2019-04-27T22:11:41.409Z,66.93
2019-04-27T22:14:11.705Z,67.46
2019-04-27T22:16:41.665Z,66.76
2019-04-27T22:19:12.051Z,67.89
2019-04-27T22:21:41.975Z,67.74
2019-04-27T22:24:12.298Z,67.12
2019-04-27T22:26:41.491Z,69.67
2019-04-27T22:29:12.056Z,69.48
2019-04-27T22:31:41.506Z,69.20
2019-04-27T22:34:10.837Z,68.83
2019-04-27T22:36:39.405Z,70.05
2019-04-27T22:39:11.627Z,70.00
2019-04-27T22:41:44.724Z,70.58
2019-04-27T22:44:14.865Z,69.16
2019-04-27T22:46:45.043Z,68.58
2019-04-27T22:49:13.540Z,70.27
2019-04-27T22:51:43.140Z,70.60
2019-04-27T22:54:11.792Z,71.46
2019-04-27T22:56:42.236Z,69.46
2019-04-27T22:59:27.647Z,69.85
2019-04-27T23:02:06.741Z,70.21
2019-04-27T23:04:36.892Z,70.86
2019-04-27T23:07:05.510Z,72.98
2019-04-27T23:09:34.002Z,71.98
2019-04-27T23:12:02.474Z,72.17
2019-04-27T23:14:31.364Z,70.09
2019-04-27T23:17:03.148Z,71.22
2019-04-27T23:19:31.819Z,71.75
2019-04-27T23:22:00.802Z,70.88
2019-04-27T23:24:31.068Z,71.48
2019-04-27T23:26:59.610Z,71.12
2019-04-27T23:29:28.101Z,71.60
2019-04-27T23:32:11.705Z,73.56
2019-04-27T23:34:41.518Z,72.30
2019-04-27T23:37:10.161Z,72.91
2019-04-27T23:39:38.645Z,72.29
2019-04-27T23:42:07.167Z,72.11
2019-04-27T23:44:35.653Z,71.32
2019-04-27T23:47:04.120Z,71.36
2019-04-27T23:49:32.601Z,74.76
2019-04-27T23:52:02.718Z,71.34
2019-04-27T23:54:31.197Z,72.28
2019-04-27T23:56:59.667Z,73.15
2019-04-27T23:59:28.169Z,73.80
